Neerslagradar Meer informatie rain snow radar


Waarschuwing voor Parkstad Onweer Meer informatie Boltek Parkstad!


24/7 Weercamera Meer informatie Webcam





Onweer Van: 28-05-2017 06:00 tot: 08:59 Waarschuwing voor Parkstad (045): Onweer  Niveau: geel info button

METAR rapporten vliegvelden

   
EHBK - Maastricht
Gewijzigd: 28-05-2017 06:25
Gedeeltelijk bewolkt  
Gedeeltelijk bewolkt  
   Wind: NW 5.6 km/h
Wind: NW 5.6 km/h
Temperatuur: 17°C
Dauwpunt: 15°C
Vochtigheid: 88%
Barometer: 1018 hPa
Satelliet beelden: Gedeeltelijk bewolkt
Zicht: meer dan 10 km
Bewolking: Gedeeltelijk bewolkt
EHBK 280425Z AUTO 31003KT 260V350 9999 NSC 17/15 Q1018 NOSIG
EBLG - Liège
Gewijzigd: 28-05-2017 06:20
Licht bewolkt  
Licht bewolkt  
   Wind: NNO 7.4 km/h
Wind: NNO 7.4 km/h
Temperatuur: 17°C
Dauwpunt: 13°C
Vochtigheid: 77%
Barometer: 1019 hPa
Satelliet beelden: Licht bewolkt
Zicht: meer dan 10 km
Bewolking: Licht bewolkt 4500 ft
EBLG 280420Z 03004KT 9999 FEW045 17/13 Q1019 NOSIG
EDDK - Köln/Bonn
Gewijzigd: 28-05-2017 06:20
Helder  
Helder  
   Wind: varieert 3.7 km/h
Wind: varieert 3.7 km/h
Temperatuur: 16°C
Dauwpunt: 14°C
Vochtigheid: 88%
Barometer: 1018 hPa
Zicht: meer dan 10 km
Bewolking: Helder
EDDK 280420Z VRB02KT CAVOK 16/14 Q1018 NOSIG
EDDL - Düsseldorf
Gewijzigd: 28-05-2017 06:20
Grotendeels bewolkt  
Grotendeels bewolkt  
   Wind: Noorden 7.4 km/h
Wind: Noorden 7.4 km/h
Temperatuur: 19°C
Dauwpunt: 16°C
Vochtigheid: 83%
Barometer: 1018 hPa
Satelliet beelden: Grotendeels bewolkt
Zicht: meer dan 10 km
Bewolking: Licht bewolkt 3000 ft,
Grotendeels bewolkt 30000 ft
EDDL 280420Z 35004KT 320V030 9999 FEW030 BKN300 19/16 Q1018 NOSIG
EHEH - Eindhoven
Gewijzigd: 28-05-2017 06:25
Helder  
Helder  
   Wind: Windstil
Wind: Windstil
Temperatuur: 16°C
Dauwpunt: 14°C
Vochtigheid: 88%
Barometer: 1018 hPa
Satelliet beelden: Helder
Zicht: meer dan 10 km
Bewolking: Helder
EHEH 280425Z AUTO 00000KT 9999 NCD 16/14 Q1018 BLU
ELLX - Luxemburg
Gewijzigd: 28-05-2017 06:20
Helder  
Helder  
   Wind: Windstil
Wind: Windstil
Temperatuur: 19°C
Dauwpunt: 14°C
Vochtigheid: 73%
Barometer: 1019 hPa
Zicht: meer dan 10 km
Bewolking: Helder
ELLX 280420Z 00000KT CAVOK 19/14 Q1019 NOSIG
EGLL - London
Gewijzigd: 28-05-2017 06:20
Helder  
Helder  
   Wind: ZW 11.1 km/h
Wind: ZW 11.1 km/h
Temperatuur: 12°C
Dauwpunt: 11°C
Vochtigheid: 94%
Barometer: 1019 hPa
Satelliet beelden: Helder
Zicht: 9 km
Bewolking: Helder
EGLL 280420Z AUTO 23006KT 9000 NCD 12/11 Q1019 NOSIG
EBAW - Antwerpen
Gewijzigd: 28-05-2017 06:20
Grondmist, Licht bewolkt  
Grondmist, Licht bewolkt  
   Wind: varieert 3.7 km/h
Wind: varieert 3.7 km/h
Temperatuur: 18°C
Dauwpunt: 14°C
Vochtigheid: 78%
Barometer: 1018 hPa
Satelliet beelden: Licht bewolkt
Zicht: meer dan 10 km
Bewolking: Licht bewolkt 4000 ft
EBAW 280420Z VRB02KT 9999 MIFG FEW040CB 18/14 Q1018 NOSIG
EBOS - Oostende
Gewijzigd: 28-05-2017 06:20
Licht bewolkt  
Licht bewolkt  
   Wind: ZW 3.7 km/h
Wind: ZW 3.7 km/h
Temperatuur: 12°C
Dauwpunt: 11°C
Vochtigheid: 94%
Barometer: 1018 hPa
Satelliet beelden: Licht bewolkt
Zicht: meer dan 10 km
Bewolking: Licht bewolkt 3000 ft
EBOS 280420Z 22002KT 9999 FEW030 12/11 Q1018 NOSIG
TNCA - Oranjestad
Gewijzigd: 28-05-2017 06:00
Licht bewolkt  
Licht bewolkt  
   Wind: Oosten 27.8 km/h
Wind: Oosten 27.8 km/h
Temperatuur: 28°C
Gevoelstemperatuur: 32°C
Dauwpunt: 24°C
Vochtigheid: 79%
Barometer: 1015 hPa
Satelliet beelden: Licht bewolkt
Zicht: 8 km
Bewolking: Licht bewolkt 2000 ft
TNCA 280400Z 09015KT 8000 FEW020 28/24 Q1015 A2998 NOSIG
TNCC - Willemstad
Gewijzigd: 28-05-2017 06:00
Licht bewolkt  
Licht bewolkt  
   Wind: Oosten 14.8 km/h
Wind: Oosten 14.8 km/h
Temperatuur: 27°C
Gevoelstemperatuur: 29°C
Dauwpunt: 23°C
Vochtigheid: 79%
Barometer: 1015 hPa
Satelliet beelden: Licht bewolkt
Zicht: meer dan 10 km
Bewolking: Licht bewolkt 1800 ft
TNCC 280400Z 10008KT 9999 FEW018 27/23 Q1015 NOSIG
MTPP - Port au Prince
Gewijzigd: 28-05-2017 04:00
Verouderd
Gedeeltelijk bewolkt  
Gedeeltelijk bewolkt  
   Wind: NO 18.5 km/h
Wind: NO 18.5 km/h
Temperatuur: 28°C
Gevoelstemperatuur: 32°C
Dauwpunt: 24°C
Vochtigheid: 79%
Barometer: 1015 hPa
Satelliet beelden: Gedeeltelijk bewolkt
Zicht: 8 km
Bewolking: Licht bewolkt 2400 ft,
Gedeeltelijk bewolkt 5000 ft
MTPP 280200Z 04010KT 8000 FEW024CB SCT050 28/24 Q1015 A2998 RMK
ENVA - Trondheim
Gewijzigd: 28-05-2017 06:20
Grotendeels bewolkt  
Grotendeels bewolkt  
   Wind: Oosten 7.4 km/h
Wind: Oosten 7.4 km/h
Temperatuur: 12°C
Dauwpunt: 11°C
Vochtigheid: 94%
Barometer: 1010 hPa
Satelliet beelden: Grotendeels bewolkt
Zicht: meer dan 10 km
Bewolking: Licht bewolkt 2000 ft,
Grotendeels bewolkt 6100 ft
ENVA 280420Z 09004KT 9999 FEW020 BKN061 12/11 Q1010 RMK WIND 670FT VRB03KT
ENBO - Bodø
Gewijzigd: 28-05-2017 06:20
Wat regen mogelijk, Grotendeels bewolkt  
Wat regen mogelijk, Grotendeels bewolkt  
   Wind: ZZO 13 km/h
Wind: ZZO 13 km/h
Temperatuur: 7°C
Voelt als: 4°C
Dauwpunt: 7°C
Vochtigheid: 100%
Barometer: 1002 hPa
Satelliet beelden: Grotendeels bewolkt
Zicht: meer dan 10 km
Bewolking: Licht bewolkt 300 ft,
Gedeeltelijk bewolkt 900 ft,
Grotendeels bewolkt 1400 ft
ENBO 280420Z 15007KT 070V220 9999 -RA FEW003 SCT009 BKN014 07/07 Q1002
ETNG - Geilenkirchen
Gewijzigd: 25-05-2017 19:50
Verouderd
Helder  
Helder  
   Wind: NO 14.8 km/h
Wind: NO 14.8 km/h
Temperatuur: 23°C
Dauwpunt: 11°C
Vochtigheid: 47%
Barometer: 1023 hPa
Zicht: meer dan 10 km
Bewolking: Helder
ETNG 251750Z 04008KT CAVOK 23/11 Q1023 NOSIG

Script ontwikkeld door  Saratoga-weather.org Aangepast voor de template door  Weerstation Leuven

U vindt ons ook hier:

Het Weer Aktueel

UK Metoffice

European Weather Network

WeatherCloud

Weather Underground

Benelux Weer Netwerk

AWEKAS

WeatherlinkIP

Citizen Weather Observer Program (CWOP)

HAMweather, WeatherForYou, PWS Weather

Apparatuur in gebruik:

Hardwareleverancier
Weerhuisje

Weerstation
Vantage Pro2 Plus +UV

Weercomputer
AwekasBox (ALIX.3D2 PC)

Weerprogramma
Smartbedded

Weersatelliet
WRX137 & KX137

Bliksemdetectie
Boltek StormTracker PCI

Webleverancier
STRATO VPS Linux V80

Weerhuisje

Vantage Pro2 Plus +UV

AwekasBox (ALIX.3D2 PC)

Smartbedded

WRX137 & KX137

Boltek StormTracker PCI

STRATO VPS Linux V80